createdAt,value
2022-12-03T00:00:00.320Z,21.77
2022-12-03T00:02:27.626Z,28.75
2022-12-03T00:04:55.282Z,26.35
2022-12-03T00:07:22.752Z,27.00
2022-12-03T00:09:49.974Z,28.23
2022-12-03T00:12:17.902Z,27.45
2022-12-03T00:14:45.207Z,28.23
2022-12-03T00:17:12.417Z,30.33
2022-12-03T00:19:39.651Z,31.15
2022-12-03T00:22:06.846Z,20.05
2022-12-03T00:24:34.182Z,19.90
2022-12-03T00:27:01.488Z,27.92
2022-12-03T00:29:29.265Z,22.65
2022-12-03T00:31:56.609Z,20.20
2022-12-03T00:34:23.837Z,23.30
2022-12-03T00:36:51.059Z,27.17
2022-12-03T00:39:18.311Z,19.95
2022-12-03T00:41:45.673Z,27.75
2022-12-03T00:44:12.892Z,22.95
2022-12-03T00:46:40.177Z,16.55
2022-12-03T00:49:07.456Z,25.67
2022-12-03T00:51:35.843Z,26.73
2022-12-03T00:54:03.241Z,27.02
2022-12-03T00:56:30.567Z,20.33
2022-12-03T00:58:57.776Z,20.77
2022-12-03T01:01:25.029Z,21.58
2022-12-03T01:03:52.314Z,31.02
2022-12-03T01:06:19.589Z,24.10
2022-12-03T01:08:46.805Z,27.20
2022-12-03T01:11:32.401Z,30.58
2022-12-03T01:13:59.620Z,26.02
2022-12-03T01:16:26.949Z,31.73
2022-12-03T01:18:54.340Z,27.02
2022-12-03T01:21:21.664Z,23.50
2022-12-03T01:23:48.926Z,34.88
2022-12-03T01:26:17.326Z,22.65
2022-12-03T01:28:44.643Z,29.52
2022-12-03T01:31:30.785Z,25.33
2022-12-03T01:33:58.170Z,25.20
2022-12-03T01:36:25.496Z,30.40
2022-12-03T01:38:52.750Z,28.40
2022-12-03T01:41:21.884Z,41.65
2022-12-03T01:43:51.219Z,28.25
2022-12-03T01:46:22.261Z,27.98
2022-12-03T01:48:52.357Z,36.08
2022-12-03T01:51:20.043Z,44.50
2022-12-03T01:53:47.794Z,34.67
2022-12-03T01:56:16.847Z,32.88
2022-12-03T01:58:45.422Z,35.35
2022-12-03T02:01:15.575Z,28.55
2022-12-03T02:03:44.140Z,41.08
2022-12-03T02:06:18.231Z,30.70
2022-12-03T02:08:46.491Z,43.45
2022-12-03T02:11:25.665Z,35.58
2022-12-03T02:13:57.075Z,34.55
2022-12-03T02:16:24.544Z,35.42
2022-12-03T02:18:51.971Z,37.63
2022-12-03T02:21:22.640Z,23.80
2022-12-03T02:24:19.758Z,36.60
2022-12-03T02:26:47.031Z,34.05
2022-12-03T02:29:14.458Z,34.72
2022-12-03T02:31:42.978Z,33.15
2022-12-03T02:34:11.635Z,34.20
2022-12-03T02:36:39.683Z,38.35
2022-12-03T02:39:07.282Z,31.83
2022-12-03T02:41:53.113Z,32.78
2022-12-03T02:44:20.348Z,30.85
2022-12-03T02:46:47.618Z,34.60
2022-12-03T02:49:14.993Z,36.15
2022-12-03T02:51:42.316Z,34.83
2022-12-03T02:54:09.614Z,27.85
2022-12-03T02:56:37.071Z,31.27
2022-12-03T02:59:05.685Z,27.92
2022-12-03T03:01:34.913Z,38.05
2022-12-03T03:04:03.244Z,35.10
2022-12-03T03:06:30.751Z,27.98
2022-12-03T03:08:58.092Z,32.85
2022-12-03T03:11:25.591Z,22.35
2022-12-03T03:13:52.879Z,30.08
2022-12-03T03:16:20.275Z,22.80
2022-12-03T03:18:48.592Z,25.73
2022-12-03T03:21:15.980Z,26.23
2022-12-03T03:23:43.312Z,19.63
2022-12-03T03:26:13.570Z,35.70
2022-12-03T03:28:44.767Z,26.27
2022-12-03T03:31:14.003Z,25.60
2022-12-03T03:33:43.231Z,27.45
2022-12-03T03:36:11.136Z,30.30
2022-12-03T03:38:39.076Z,33.50
2022-12-03T03:41:07.687Z,31.05
2022-12-03T03:43:37.021Z,21.10
2022-12-03T03:46:05.564Z,26.10
2022-12-03T03:48:34.599Z,37.55
2022-12-03T03:51:04.241Z,17.20
2022-12-03T03:53:31.524Z,22.95
2022-12-03T03:55:58.856Z,27.40
2022-12-03T03:58:26.279Z,21.70
2022-12-03T04:00:53.728Z,25.33
2022-12-03T04:03:21.000Z,26.17
2022-12-03T04:05:50.923Z,30.65
2022-12-03T04:08:18.320Z,22.70
2022-12-03T04:11:04.214Z,34.67
2022-12-03T04:13:31.491Z,25.35
2022-12-03T04:15:58.770Z,24.30
2022-12-03T04:18:44.204Z,27.50
2022-12-03T04:21:36.327Z,23.23
2022-12-03T04:24:04.620Z,25.67
2022-12-03T04:26:50.756Z,28.10
2022-12-03T04:29:19.626Z,25.83
2022-12-03T04:32:05.850Z,29.85
2022-12-03T04:34:52.509Z,26.02
2022-12-03T04:37:20.357Z,35.10
2022-12-03T04:39:47.932Z,29.77
2022-12-03T04:42:15.224Z,32.72
2022-12-03T04:44:42.856Z,30.40
2022-12-03T04:47:14.205Z,31.60
2022-12-03T04:49:44.561Z,32.13
2022-12-03T04:52:13.820Z,33.30
2022-12-03T04:54:41.660Z,30.23
2022-12-03T04:57:09.961Z,38.42
2022-12-03T04:59:38.052Z,37.95
2022-12-03T05:02:06.639Z,33.40
2022-12-03T05:04:33.971Z,35.47
2022-12-03T05:07:01.306Z,35.35
2022-12-03T05:09:28.865Z,32.92
2022-12-03T05:12:02.578Z,39.53
2022-12-03T05:14:56.388Z,40.63
2022-12-03T05:17:30.363Z,36.67
2022-12-03T05:20:16.356Z,38.95
2022-12-03T05:22:44.047Z,44.22
2022-12-03T05:25:11.437Z,42.92
2022-12-03T05:27:40.365Z,45.85
2022-12-03T05:30:08.285Z,36.63
2022-12-03T05:32:35.558Z,38.80
2022-12-03T05:35:02.889Z,35.88
2022-12-03T05:37:30.072Z,41.25
2022-12-03T05:39:57.287Z,41.58
2022-12-03T05:42:43.113Z,44.65
2022-12-03T05:45:10.692Z,37.58
2022-12-03T05:47:37.924Z,39.55
2022-12-03T05:50:05.861Z,42.40
2022-12-03T05:52:33.201Z,39.85
2022-12-03T05:55:00.501Z,31.15
2022-12-03T05:57:29.318Z,38.13
2022-12-03T05:59:56.598Z,35.40
2022-12-03T06:02:23.995Z,34.72
2022-12-03T06:04:51.742Z,30.55
2022-12-03T06:07:19.170Z,28.80
2022-12-03T06:09:46.425Z,39.92
2022-12-03T06:12:13.743Z,32.53
2022-12-03T06:14:41.037Z,28.95
2022-12-03T06:17:08.361Z,26.40
2022-12-03T06:19:35.883Z,29.67
2022-12-03T06:22:03.105Z,32.97
2022-12-03T06:24:30.448Z,23.85
2022-12-03T06:26:58.801Z,30.10
2022-12-03T06:29:26.095Z,27.00
2022-12-03T06:31:53.399Z,45.03
2022-12-03T06:34:20.613Z,37.88
2022-12-03T06:36:49.985Z,27.60
2022-12-03T06:39:18.097Z,21.30
2022-12-03T06:41:45.382Z,39.50
2022-12-03T06:44:13.405Z,38.38
2022-12-03T06:46:40.955Z,27.95
2022-12-03T06:49:11.281Z,24.60
2022-12-03T06:51:38.565Z,22.90
2022-12-03T06:54:06.156Z,30.02
2022-12-03T06:56:37.858Z,23.20
2022-12-03T06:59:09.005Z,26.05
2022-12-03T07:01:36.355Z,25.95
2022-12-03T07:04:03.701Z,35.08
2022-12-03T07:06:30.915Z,35.45
2022-12-03T07:08:58.288Z,37.80
2022-12-03T07:11:31.363Z,26.52
2022-12-03T07:14:05.429Z,35.75
2022-12-03T07:16:34.514Z,23.73
2022-12-03T07:19:02.680Z,31.65
2022-12-03T07:21:29.972Z,33.75
2022-12-03T07:23:57.305Z,28.75
2022-12-03T07:26:24.587Z,31.70
2022-12-03T07:28:51.913Z,31.30
2022-12-03T07:31:19.375Z,29.85
2022-12-03T07:33:46.780Z,37.85
2022-12-03T07:36:14.245Z,25.80
2022-12-03T07:38:41.529Z,36.92
2022-12-03T07:41:08.813Z,22.35
2022-12-03T07:43:36.065Z,26.58
2022-12-03T07:46:03.460Z,34.95
2022-12-03T07:48:30.668Z,23.55
2022-12-03T07:50:58.924Z,43.80
2022-12-03T07:53:26.129Z,23.60
2022-12-03T07:55:53.408Z,28.20
2022-12-03T07:58:20.738Z,26.05
2022-12-03T08:00:48.033Z,20.48
2022-12-03T08:03:15.375Z,30.42
2022-12-03T08:05:42.625Z,20.15
2022-12-03T08:08:09.878Z,21.40
2022-12-03T08:10:37.169Z,23.50
2022-12-03T08:13:10.725Z,28.92
2022-12-03T08:15:39.694Z,25.50
2022-12-03T08:18:19.227Z,22.20
2022-12-03T08:20:48.785Z,27.23
2022-12-03T08:23:18.789Z,20.70
2022-12-03T08:25:46.728Z,21.15
2022-12-03T08:28:27.045Z,18.05
2022-12-03T08:31:28.011Z,31.52
2022-12-03T08:34:31.721Z,21.10
2022-12-03T08:37:05.804Z,20.45
2022-12-03T08:39:48.562Z,23.08
2022-12-03T08:42:40.482Z,16.65
2022-12-03T08:45:27.872Z,25.17
2022-12-03T08:48:00.265Z,19.65
2022-12-03T08:50:39.303Z,20.42
2022-12-03T08:53:35.651Z,20.85
2022-12-03T08:56:18.595Z,23.05
2022-12-03T08:58:48.397Z,19.55
2022-12-03T09:01:27.389Z,18.67
2022-12-03T09:03:56.079Z,20.80
2022-12-03T09:06:23.440Z,25.40
2022-12-03T09:08:50.672Z,27.13
2022-12-03T09:11:17.917Z,24.70
2022-12-03T09:13:45.220Z,22.08
2022-12-03T09:16:12.625Z,15.57
2022-12-03T09:18:39.879Z,19.75
2022-12-03T09:21:07.103Z,17.45
2022-12-03T09:23:34.558Z,23.13
2022-12-03T09:26:01.986Z,14.00
2022-12-03T09:28:29.218Z,21.15
2022-12-03T09:30:56.473Z,24.10
2022-12-03T09:33:23.736Z,21.52
2022-12-03T09:35:50.953Z,18.33
2022-12-03T09:38:18.282Z,26.52
2022-12-03T09:40:45.702Z,18.63
2022-12-03T09:43:13.040Z,26.00
2022-12-03T09:45:40.385Z,26.65
2022-12-03T09:48:07.786Z,19.75
2022-12-03T09:50:38.158Z,20.90
2022-12-03T09:53:05.460Z,23.48
2022-12-03T09:55:32.763Z,14.80
2022-12-03T09:58:00.733Z,19.13
2022-12-03T10:00:30.200Z,32.88
2022-12-03T10:03:01.822Z,19.70
2022-12-03T10:05:29.669Z,13.32
2022-12-03T10:08:06.807Z,18.35
2022-12-03T10:13:02.490Z,20.85
2022-12-03T10:15:29.843Z,13.63
2022-12-03T10:17:58.349Z,11.82
2022-12-03T10:20:26.388Z,23.02
2022-12-03T10:22:53.634Z,18.15
2022-12-03T10:25:22.964Z,19.20
2022-12-03T10:28:01.230Z,28.50
2022-12-03T10:30:29.125Z,22.52
2022-12-03T10:32:58.571Z,14.75
2022-12-03T10:35:38.770Z,18.17
2022-12-03T10:38:09.426Z,23.20
2022-12-03T10:40:39.066Z,22.48
2022-12-03T10:43:13.530Z,14.95
2022-12-03T10:45:41.480Z,17.63
2022-12-03T10:48:19.652Z,18.70
2022-12-03T10:50:53.261Z,25.13
2022-12-03T10:53:32.286Z,14.57
2022-12-03T10:56:02.837Z,17.85
2022-12-03T10:58:34.107Z,9.30
2022-12-03T11:01:03.828Z,14.88
2022-12-03T11:03:35.433Z,14.00
2022-12-03T11:06:04.026Z,12.55
2022-12-03T11:08:35.346Z,21.38
2022-12-03T11:11:06.141Z,20.08
2022-12-03T11:13:33.444Z,25.25
2022-12-03T11:16:03.083Z,15.63
2022-12-03T11:18:36.252Z,33.35
2022-12-03T11:21:05.864Z,20.92
2022-12-03T11:23:58.840Z,19.38
2022-12-03T11:26:29.172Z,14.10
2022-12-03T11:28:58.306Z,17.65
2022-12-03T11:31:42.327Z,19.45
2022-12-03T11:34:18.944Z,13.35
2022-12-03T11:37:11.372Z,15.45
2022-12-03T11:39:59.809Z,15.77
2022-12-03T11:42:27.079Z,16.40
2022-12-03T11:45:06.424Z,18.75
2022-12-03T11:47:58.368Z,23.38
2022-12-03T11:50:39.071Z,23.23
2022-12-03T11:53:25.971Z,19.25
2022-12-03T11:56:12.945Z,15.52
2022-12-03T11:58:43.650Z,17.67
2022-12-03T12:01:11.833Z,11.38
2022-12-03T12:03:48.381Z,16.45
2022-12-03T12:06:18.560Z,21.88
2022-12-03T12:08:51.865Z,15.45
2022-12-03T12:11:33.885Z,19.27
2022-12-03T12:14:12.092Z,29.73
2022-12-03T12:16:52.756Z,17.48
2022-12-03T12:19:31.959Z,20.27
2022-12-03T12:22:29.408Z,28.52
2022-12-03T12:25:25.474Z,38.83
2022-12-03T12:27:53.854Z,21.48
2022-12-03T12:30:22.510Z,26.30
2022-12-03T12:32:52.152Z,26.05
2022-12-03T12:35:24.571Z,18.77
2022-12-03T12:37:59.621Z,25.85
2022-12-03T12:40:32.350Z,12.80
2022-12-03T12:43:11.796Z,24.70
2022-12-03T12:45:42.944Z,24.20
2022-12-03T12:48:10.238Z,18.50
2022-12-03T12:50:38.683Z,19.40
2022-12-03T12:53:17.844Z,24.40
2022-12-03T12:55:45.321Z,27.58
2022-12-03T12:58:16.523Z,37.38
2022-12-03T13:00:48.653Z,31.63
2022-12-03T13:03:18.713Z,29.55
2022-12-03T13:05:48.868Z,19.48
2022-12-03T13:08:21.373Z,24.40
2022-12-03T13:10:49.720Z,32.92
2022-12-03T13:13:23.301Z,27.42
2022-12-03T13:15:57.958Z,24.02
2022-12-03T13:18:32.524Z,34.80
2022-12-03T13:21:06.673Z,32.90
2022-12-03T13:23:35.461Z,25.73
2022-12-03T13:26:28.520Z,28.00
2022-12-03T13:29:02.549Z,28.33
2022-12-03T13:31:39.462Z,29.63
2022-12-03T13:34:20.753Z,34.33
2022-12-03T13:36:55.415Z,30.17
2022-12-03T13:39:35.531Z,25.05
2022-12-03T13:42:33.271Z,30.52
2022-12-03T13:45:02.062Z,21.63
2022-12-03T13:47:29.322Z,33.50
2022-12-03T13:50:04.147Z,29.98
2022-12-03T13:52:34.695Z,22.65
2022-12-03T13:55:03.414Z,32.88
2022-12-03T13:57:30.654Z,23.88
2022-12-03T13:59:57.884Z,38.72
2022-12-03T14:02:25.242Z,26.08
2022-12-03T14:04:56.934Z,29.13
2022-12-03T14:07:27.480Z,38.45
2022-12-03T14:09:55.208Z,31.80
2022-12-03T14:12:25.737Z,27.20
2022-12-03T14:14:53.713Z,27.58
2022-12-03T14:17:21.084Z,30.65
2022-12-03T14:19:48.470Z,33.70
2022-12-03T14:22:15.873Z,27.02
2022-12-03T14:24:43.210Z,27.10
2022-12-03T14:27:10.485Z,34.60
2022-12-03T14:29:37.756Z,33.28
2022-12-03T14:32:05.081Z,35.42
2022-12-03T14:34:32.363Z,31.10
2022-12-03T14:36:59.757Z,30.67
2022-12-03T14:39:27.109Z,40.33
2022-12-03T14:42:12.817Z,27.85
2022-12-03T14:44:45.269Z,36.08
2022-12-03T14:47:14.889Z,31.52
2022-12-03T14:49:42.427Z,30.30
2022-12-03T14:52:12.522Z,37.53
2022-12-03T14:54:44.258Z,30.98
2022-12-03T14:57:13.102Z,32.05
2022-12-03T14:59:41.925Z,30.23
2022-12-03T15:02:10.579Z,34.83
2022-12-03T15:04:38.898Z,37.53
2022-12-03T15:07:06.763Z,30.20
2022-12-03T15:09:34.529Z,33.97
2022-12-03T15:12:04.085Z,31.40
2022-12-03T15:14:31.439Z,30.10
2022-12-03T15:16:58.912Z,31.40
2022-12-03T15:19:26.386Z,28.65
2022-12-03T15:21:53.749Z,31.27
2022-12-03T15:24:21.170Z,37.58
2022-12-03T15:26:49.476Z,39.70
2022-12-03T15:29:16.801Z,31.90
2022-12-03T15:31:44.555Z,34.35
2022-12-03T15:34:11.898Z,31.98
2022-12-03T15:36:39.123Z,31.20
2022-12-03T15:39:06.456Z,36.00
2022-12-03T15:41:33.920Z,33.25
2022-12-03T15:44:02.129Z,37.58
2022-12-03T15:46:31.534Z,36.92
2022-12-03T15:48:59.420Z,40.22
2022-12-03T15:51:26.696Z,39.63
2022-12-03T15:53:53.951Z,43.50
2022-12-03T15:56:21.307Z,33.35
2022-12-03T15:58:48.529Z,38.40
2022-12-03T16:01:18.244Z,38.80
2022-12-03T16:03:45.858Z,28.63
2022-12-03T16:06:14.642Z,32.20
2022-12-03T16:08:41.979Z,31.05
2022-12-03T16:11:09.239Z,38.83
2022-12-03T16:13:36.447Z,30.08
2022-12-03T16:16:03.908Z,39.85
2022-12-03T16:18:32.138Z,30.60
2022-12-03T16:20:59.476Z,31.70
2022-12-03T16:23:26.939Z,33.40
2022-12-03T16:25:54.225Z,32.67
2022-12-03T16:28:21.450Z,35.17
2022-12-03T16:30:48.768Z,35.20
2022-12-03T16:33:16.062Z,36.50
2022-12-03T16:35:43.400Z,33.85
2022-12-03T16:38:10.839Z,34.17
2022-12-03T16:40:38.117Z,35.28
2022-12-03T16:43:05.330Z,30.08
2022-12-03T16:45:55.888Z,26.50
2022-12-03T16:48:23.258Z,43.50
2022-12-03T16:50:50.605Z,33.72
2022-12-03T16:53:17.838Z,30.50
2022-12-03T16:55:45.074Z,33.33
2022-12-03T16:58:12.368Z,40.00
2022-12-03T17:00:39.615Z,38.60
2022-12-03T17:03:06.940Z,32.45
2022-12-03T17:05:34.353Z,38.88
2022-12-03T17:08:01.705Z,44.95
2022-12-03T17:10:29.205Z,44.50
2022-12-03T17:13:11.730Z,34.55
2022-12-03T17:15:40.295Z,35.10
2022-12-03T17:18:08.566Z,33.78
2022-12-03T17:20:36.551Z,33.28
2022-12-03T17:23:04.190Z,37.78
2022-12-03T17:25:31.603Z,32.72
2022-12-03T17:27:58.919Z,35.42
2022-12-03T17:30:26.287Z,33.20
2022-12-03T17:32:53.785Z,32.13
2022-12-03T17:35:21.145Z,37.05
2022-12-03T17:37:48.466Z,38.25
2022-12-03T17:40:17.242Z,39.33
2022-12-03T17:42:44.605Z,38.78
2022-12-03T17:45:12.481Z,41.85
2022-12-03T17:47:40.026Z,36.72
2022-12-03T17:50:08.226Z,36.67
2022-12-03T17:52:35.442Z,45.80
2022-12-03T17:55:11.699Z,38.58
2022-12-03T17:57:40.310Z,28.85
2022-12-03T18:00:08.312Z,42.80
2022-12-03T18:02:42.525Z,46.47
2022-12-03T18:05:09.997Z,38.83
2022-12-03T18:07:37.235Z,44.55
2022-12-03T18:10:05.239Z,38.53
2022-12-03T18:12:33.173Z,41.38
2022-12-03T18:15:00.388Z,43.03
2022-12-03T18:17:27.652Z,48.58
2022-12-03T18:19:55.220Z,44.30
2022-12-03T18:22:22.612Z,39.42
2022-12-03T18:24:51.968Z,46.75
2022-12-03T18:27:22.991Z,46.88
2022-12-03T18:29:50.381Z,49.75
2022-12-03T18:32:28.791Z,45.58
2022-12-03T18:34:57.593Z,43.83
2022-12-03T18:37:27.835Z,43.08
2022-12-03T18:39:56.285Z,47.83
2022-12-03T18:42:24.050Z,43.72
2022-12-03T18:44:53.510Z,35.30
2022-12-03T18:47:27.099Z,41.33
2022-12-03T18:49:55.183Z,44.08
2022-12-03T18:52:24.891Z,50.53
2022-12-03T18:54:52.596Z,41.00
2022-12-03T18:57:19.864Z,41.45
2022-12-03T18:59:47.489Z,55.25
2022-12-03T19:05:08.979Z,55.05
2022-12-03T19:07:36.363Z,44.38
2022-12-03T19:10:04.344Z,43.67
2022-12-03T19:12:32.166Z,39.80
2022-12-03T19:14:59.412Z,42.22
2022-12-03T19:17:27.302Z,44.13
2022-12-03T19:19:55.326Z,59.10
2022-12-03T19:22:23.859Z,45.20
2022-12-03T19:24:51.101Z,46.42
2022-12-03T19:27:19.140Z,48.97
2022-12-03T19:29:49.700Z,45.40
2022-12-03T19:32:17.061Z,47.28
2022-12-03T19:34:44.343Z,43.38
2022-12-03T19:37:11.572Z,46.15
2022-12-03T19:39:38.819Z,51.22
2022-12-03T19:42:06.123Z,39.38
2022-12-03T19:44:33.832Z,45.08
2022-12-03T19:47:01.068Z,39.85
2022-12-03T19:49:28.328Z,40.90
2022-12-03T19:51:55.529Z,47.78
2022-12-03T19:54:23.972Z,55.58
2022-12-03T19:56:51.229Z,40.72
2022-12-03T19:59:18.485Z,40.38
2022-12-03T20:01:45.925Z,45.33
2022-12-03T20:04:13.683Z,41.65
2022-12-03T20:06:41.025Z,49.92
2022-12-03T20:09:15.324Z,42.78
2022-12-03T20:11:44.416Z,53.83
2022-12-03T20:14:14.858Z,37.03
2022-12-03T20:16:42.607Z,46.83
2022-12-03T20:19:12.324Z,42.75
2022-12-03T20:21:40.145Z,46.17
2022-12-03T20:24:08.553Z,50.35
2022-12-03T20:26:35.855Z,47.53
2022-12-03T20:29:03.207Z,43.28
2022-12-03T20:31:31.703Z,45.78
2022-12-03T20:34:02.078Z,43.72
2022-12-03T20:36:30.938Z,48.42
2022-12-03T20:39:01.035Z,47.40
2022-12-03T20:41:28.745Z,46.10
2022-12-03T20:43:55.998Z,47.40
2022-12-03T20:46:29.285Z,61.10
2022-12-03T20:48:57.826Z,40.83
2022-12-03T20:51:28.071Z,41.42
2022-12-03T20:53:56.703Z,40.67
2022-12-03T20:56:31.285Z,40.72
2022-12-03T20:59:04.853Z,41.72
2022-12-03T21:01:33.006Z,36.95
2022-12-03T21:04:00.348Z,46.95
2022-12-03T21:06:29.812Z,37.75
2022-12-03T21:08:58.904Z,38.10
2022-12-03T21:11:29.671Z,38.88
2022-12-03T21:13:58.052Z,44.58
2022-12-03T21:17:05.920Z,44.20
2022-12-03T21:19:20.316Z,39.72
2022-12-03T21:21:47.667Z,40.55
2022-12-03T21:24:14.972Z,54.22
2022-12-03T21:26:42.255Z,44.28
2022-12-03T21:29:09.613Z,42.75
2022-12-03T21:31:38.337Z,48.92
2022-12-03T21:34:05.914Z,47.03
2022-12-03T21:36:33.315Z,45.55
2022-12-03T21:39:00.716Z,52.45
2022-12-03T21:41:28.155Z,46.13
2022-12-03T21:43:55.452Z,54.35
2022-12-03T21:47:11.511Z,41.67
2022-12-03T21:49:10.032Z,47.85
2022-12-03T21:51:37.563Z,43.85
2022-12-03T21:54:04.923Z,36.13
2022-12-03T21:56:32.979Z,45.75
2022-12-03T21:59:00.176Z,47.53
2022-12-03T22:01:27.528Z,49.80
2022-12-03T22:03:54.872Z,43.67
2022-12-03T22:06:22.961Z,55.63
2022-12-03T22:08:50.320Z,43.92
2022-12-03T22:11:20.740Z,42.90
2022-12-03T22:13:48.433Z,40.78
2022-12-03T22:16:18.259Z,35.05
2022-12-03T22:18:46.131Z,42.38
2022-12-03T22:21:16.030Z,47.50
2022-12-03T22:23:43.681Z,42.50
2022-12-03T22:26:13.524Z,48.88
2022-12-03T22:28:45.717Z,51.40
2022-12-03T22:31:13.476Z,48.67
2022-12-03T22:33:41.523Z,51.83
2022-12-03T22:36:16.424Z,45.85
2022-12-03T22:38:48.104Z,46.15
2022-12-03T22:41:15.971Z,45.47
2022-12-03T22:43:43.347Z,49.42
2022-12-03T22:46:12.535Z,48.45
2022-12-03T22:48:41.774Z,52.53
2022-12-03T22:51:14.437Z,44.92
2022-12-03T22:53:41.732Z,44.20
2022-12-03T22:56:09.523Z,54.45
2022-12-03T22:58:38.880Z,49.72
2022-12-03T23:01:06.993Z,41.90
2022-12-03T23:03:34.288Z,56.85
2022-12-03T23:06:01.644Z,42.92
2022-12-03T23:08:28.899Z,48.85
2022-12-03T23:11:00.581Z,44.63
2022-12-03T23:13:27.848Z,51.30
2022-12-03T23:15:55.167Z,44.05
2022-12-03T23:18:22.760Z,41.58
2022-12-03T23:20:52.820Z,56.42
2022-12-03T23:23:21.109Z,49.30
2022-12-03T23:26:07.553Z,41.80
2022-12-03T23:28:36.639Z,45.28
2022-12-03T23:31:05.192Z,48.15
2022-12-03T23:33:38.021Z,52.47
2022-12-03T23:36:06.634Z,46.45
2022-12-03T23:38:34.052Z,47.28
2022-12-03T23:41:14.247Z,42.83
2022-12-03T23:43:42.406Z,47.38
2022-12-03T23:46:13.817Z,51.78
2022-12-03T23:48:41.591Z,48.70
2022-12-03T23:51:14.983Z,44.00
2022-12-03T23:53:42.431Z,48.72
2022-12-03T23:56:15.357Z,44.97
2022-12-03T23:58:43.029Z,38.58
